DTTJ

Djerba-Zarzis

Airport
ICAO code
DTTJ
Summary
ICAO Region
AFI
ICAO Territory
Location

Djerba, Tunisia,

Coordinates
33° 52' 30" N , 10° 46' 32" E
KCC
Metar
Observation
DTTJ 021530Z 09010KT 9999 FEW026 19/05 Q1012 NOSIG
Station
Djerba Mellita
Date/Time
2022-12-02 15:30:00
Wind direction
90°
Wind speed
10 kts
Lowest cloud amount
few clouds
Temperature
19°C
Dew point
5°C
Humidity
39%
QNH
1012 hPa
Weather condition
n/a

Description

Djerba - Zarzis International Airport is an airport serving Djerba in Tunisia.

Climatology

(Köppen climate classification BSh)

Runways

Designator Length Width Surface Rops
9/27 3100 45 ASP Yes/Yes

Airport map

Aerial View

SKYbrary Partners:

Safety knowledge contributed by: